createdAt,value
2018-06-27T00:01:15.050Z,14.77
2018-06-27T00:03:44.872Z,10.87
2018-06-27T00:06:15.061Z,10.47
2018-06-27T00:08:44.647Z,11.20
2018-06-27T00:11:16.037Z,10.70
2018-06-27T00:13:45.561Z,12.03
2018-06-27T00:16:16.328Z,11.03
2018-06-27T00:18:46.641Z,13.07
2018-06-27T00:21:16.624Z,10.97
2018-06-27T00:23:46.416Z,13.27
2018-06-27T00:26:15.946Z,13.00
2018-06-27T00:28:45.855Z,15.63
2018-06-27T00:31:15.471Z,13.80
2018-06-27T00:33:47.736Z,12.50
2018-06-27T00:36:18.160Z,12.80
2018-06-27T00:38:47.867Z,11.47
2018-06-27T00:41:17.565Z,10.93
2018-06-27T00:43:47.161Z,11.57
2018-06-27T00:46:16.669Z,10.63
2018-06-27T00:48:48.231Z,13.77
2018-06-27T00:51:37.578Z,12.90
2018-06-27T00:54:08.437Z,15.13
2018-06-27T00:56:40.464Z,13.43
2018-06-27T00:59:10.598Z,14.13
2018-06-27T01:01:42.474Z,11.23
2018-06-27T01:04:14.867Z,13.77
2018-06-27T01:06:45.396Z,12.83
2018-06-27T01:09:15.737Z,12.50
2018-06-27T01:11:47.593Z,11.87
2018-06-27T01:14:17.660Z,13.03
2018-06-27T01:16:48.592Z,12.93
2018-06-27T01:19:18.365Z,12.60
2018-06-27T01:21:48.354Z,11.00
2018-06-27T01:24:18.238Z,12.83
2018-06-27T01:26:48.283Z,11.30
2018-06-27T01:29:19.397Z,13.60
2018-06-27T01:31:49.096Z,12.20
2018-06-27T01:34:18.750Z,12.97
2018-06-27T01:36:48.296Z,13.37
2018-06-27T01:39:17.834Z,11.47
2018-06-27T01:41:47.907Z,11.57
2018-06-27T01:44:18.375Z,11.40
2018-06-27T01:46:48.277Z,12.17
2018-06-27T01:49:18.059Z,12.60
2018-06-27T01:51:49.099Z,11.73
2018-06-27T01:54:18.592Z,11.70
2018-06-27T01:56:48.557Z,11.10
2018-06-27T01:59:18.520Z,12.00
2018-06-27T02:01:48.365Z,13.87
2018-06-27T02:04:19.263Z,11.53
2018-06-27T02:06:48.958Z,12.20
2018-06-27T02:09:18.681Z,12.37
2018-06-27T02:11:48.539Z,12.00
2018-06-27T02:14:18.320Z,13.57
2018-06-27T02:16:56.159Z,13.77
2018-06-27T02:19:25.753Z,16.93
2018-06-27T02:21:55.282Z,15.13
2018-06-27T02:24:25.475Z,14.07
2018-06-27T02:26:55.646Z,14.77
2018-06-27T02:29:25.231Z,14.10
2018-06-27T02:31:55.025Z,12.83
2018-06-27T02:34:24.874Z,13.80
2018-06-27T02:36:54.407Z,14.77
2018-06-27T02:39:24.262Z,14.20
2018-06-27T02:41:53.761Z,13.50
2018-06-27T02:44:23.445Z,12.00
2018-06-27T02:46:53.022Z,13.40
2018-06-27T02:49:27.694Z,12.83
2018-06-27T02:52:01.439Z,14.03
2018-06-27T02:54:31.048Z,12.43
2018-06-27T02:57:01.053Z,12.87
2018-06-27T02:59:30.532Z,13.57
2018-06-27T03:01:59.998Z,13.17
2018-06-27T03:04:29.605Z,12.27
2018-06-27T03:07:00.867Z,12.97
2018-06-27T03:09:30.484Z,11.13
2018-06-27T03:12:00.638Z,12.40
2018-06-27T03:14:30.322Z,12.87
2018-06-27T03:16:59.905Z,13.00
2018-06-27T03:19:29.600Z,13.37
2018-06-27T03:22:01.612Z,17.03
2018-06-27T03:24:31.263Z,14.70
2018-06-27T03:27:06.546Z,15.13
2018-06-27T03:29:37.838Z,13.17
2018-06-27T03:32:11.405Z,14.33
2018-06-27T03:34:46.025Z,12.90
2018-06-27T03:37:25.307Z,13.53
2018-06-27T03:40:01.252Z,13.37
2018-06-27T03:42:37.590Z,14.53
2018-06-27T03:45:07.493Z,14.73
2018-06-27T03:47:42.756Z,13.77
2018-06-27T03:50:13.125Z,13.80
2018-06-27T03:52:47.353Z,17.40
2018-06-27T03:55:17.013Z,16.77
2018-06-27T03:57:46.963Z,15.30
2018-06-27T04:00:17.617Z,15.40
2018-06-27T04:02:47.477Z,16.27
2018-06-27T04:05:18.049Z,17.07
2018-06-27T04:08:04.346Z,15.10
2018-06-27T04:10:34.268Z,13.27
2018-06-27T04:13:04.959Z,14.17
2018-06-27T04:15:37.156Z,16.90
2018-06-27T04:18:21.269Z,13.63
2018-06-27T04:20:51.854Z,17.00
2018-06-27T04:23:27.367Z,15.97
2018-06-27T04:25:57.953Z,17.00
2018-06-27T04:28:28.660Z,12.80
2018-06-27T04:39:44.279Z,16.27
2018-06-27T04:42:17.718Z,13.13
2018-06-27T04:57:40.411Z,22.40
2018-06-27T05:00:10.211Z,18.10
2018-06-27T05:02:40.128Z,14.83
2018-06-27T05:05:09.662Z,15.93
2018-06-27T05:07:39.293Z,17.20
2018-06-27T05:10:08.884Z,12.37
2018-06-27T05:12:38.573Z,13.90
2018-06-27T05:15:10.765Z,11.70
2018-06-27T05:20:35.308Z,15.30
2018-06-27T05:23:06.232Z,16.03
2018-06-27T05:25:36.751Z,14.13
2018-06-27T05:28:07.327Z,13.40
2018-06-27T05:30:37.927Z,14.13
2018-06-27T05:33:09.370Z,13.93
2018-06-27T05:35:40.053Z,12.33
2018-06-27T05:38:10.715Z,11.23
2018-06-27T05:40:41.466Z,12.93
2018-06-27T05:43:12.024Z,12.33
2018-06-27T05:45:42.936Z,13.63
2018-06-27T05:48:15.481Z,11.70
2018-06-27T05:50:48.216Z,12.47
2018-06-27T05:53:20.079Z,12.90
2018-06-27T05:55:55.732Z,14.13
2018-06-27T05:58:26.788Z,12.73
2018-06-27T06:00:58.508Z,17.47
2018-06-27T06:03:29.020Z,18.63
2018-06-27T06:05:59.612Z,20.73
2018-06-27T06:08:30.718Z,17.23
2018-06-27T06:11:01.247Z,21.13
2018-06-27T06:13:31.842Z,20.50
2018-06-27T06:16:02.329Z,20.43
2018-06-27T06:18:34.728Z,15.67
2018-06-27T06:21:05.566Z,18.37
2018-06-27T06:23:36.428Z,19.90
2018-06-27T06:26:07.403Z,19.67
2018-06-27T06:28:40.368Z,17.73
2018-06-27T06:31:10.841Z,18.63
2018-06-27T06:33:42.274Z,17.53
2018-06-27T06:36:12.704Z,16.93
2018-06-27T06:38:46.750Z,20.13
2018-06-27T06:41:17.388Z,18.70
2018-06-27T06:43:48.077Z,16.50
2018-06-27T06:46:18.561Z,19.47
2018-06-27T06:48:49.777Z,17.67
2018-06-27T06:51:20.307Z,18.97
2018-06-27T06:53:54.485Z,16.27
2018-06-27T06:56:25.013Z,16.33
2018-06-27T06:58:55.449Z,15.70
2018-06-27T07:01:26.230Z,15.83
2018-06-27T07:03:58.206Z,16.60
2018-06-27T07:06:42.548Z,16.50
2018-06-27T07:09:14.506Z,15.80
2018-06-27T07:11:45.875Z,14.03
2018-06-27T07:14:16.327Z,17.30
2018-06-27T07:16:48.766Z,14.53
2018-06-27T07:19:19.597Z,19.37
2018-06-27T07:21:50.796Z,16.67
2018-06-27T07:24:21.385Z,13.13
2018-06-27T07:26:51.960Z,12.60
2018-06-27T07:29:23.903Z,11.17
2018-06-27T07:31:54.988Z,14.23
2018-06-27T07:34:39.566Z,11.73
2018-06-27T07:37:10.382Z,9.20
2018-06-27T07:39:41.271Z,9.73
2018-06-27T07:42:12.272Z,10.57
2018-06-27T07:44:42.790Z,9.50
2018-06-27T07:47:13.506Z,9.40
2018-06-27T07:49:44.039Z,10.00
2018-06-27T07:52:15.683Z,8.83
2018-06-27T07:54:46.718Z,8.83
2018-06-27T07:57:24.200Z,8.43
2018-06-27T07:59:54.991Z,7.37
2018-06-27T08:02:26.263Z,8.03
2018-06-27T08:04:56.799Z,7.47
2018-06-27T08:07:27.976Z,10.03
2018-06-27T08:09:58.543Z,11.33
2018-06-27T08:12:29.966Z,9.53
2018-06-27T08:15:00.582Z,8.90
2018-06-27T08:17:31.546Z,7.47
2018-06-27T08:20:02.023Z,8.47
2018-06-27T08:22:39.480Z,6.97
2018-06-27T08:25:10.515Z,8.33
2018-06-27T08:27:41.054Z,7.20
2018-06-27T08:30:12.500Z,7.87
2018-06-27T08:32:48.141Z,7.70
2018-06-27T08:35:18.782Z,10.20
2018-06-27T08:37:49.361Z,7.37
2018-06-27T08:40:20.072Z,13.27
2018-06-27T08:42:51.045Z,8.67
2018-06-27T08:45:21.596Z,6.03
2018-06-27T08:47:52.825Z,9.47
2018-06-27T08:50:23.308Z,5.20
2018-06-27T08:52:54.154Z,6.90
2018-06-27T08:55:24.700Z,6.63
2018-06-27T08:57:56.646Z,6.40
2018-06-27T09:00:27.212Z,8.63
2018-06-27T09:02:57.773Z,6.63
2018-06-27T09:05:28.702Z,5.57
2018-06-27T09:07:59.305Z,6.13
2018-06-27T09:10:29.821Z,5.83
2018-06-27T09:13:00.543Z,5.83
2018-06-27T09:15:31.510Z,5.80
2018-06-27T09:18:02.485Z,4.40
2018-06-27T09:20:33.199Z,7.03
2018-06-27T09:23:05.083Z,4.57
2018-06-27T09:25:35.712Z,4.53
2018-06-27T09:28:06.364Z,4.47
2018-06-27T09:30:37.223Z,4.43
2018-06-27T09:33:07.944Z,6.23
2018-06-27T09:35:38.526Z,4.13
2018-06-27T09:38:09.049Z,4.97
2018-06-27T09:40:40.884Z,4.97
2018-06-27T09:43:11.535Z,7.33
2018-06-27T09:45:42.028Z,7.30
2018-06-27T09:48:12.525Z,3.73
2018-06-27T09:50:43.508Z,4.40
2018-06-27T09:53:14.061Z,4.83
2018-06-27T09:55:44.559Z,5.73
2018-06-27T09:58:15.778Z,6.57
2018-06-27T10:00:47.593Z,5.30
2018-06-27T10:03:18.126Z,5.57
2018-06-27T10:05:48.752Z,5.23
2018-06-27T10:08:19.256Z,5.93
2018-06-27T10:10:53.859Z,5.73
2018-06-27T10:13:25.306Z,4.40
2018-06-27T10:15:56.156Z,6.80
2018-06-27T10:18:26.886Z,5.10
2018-06-27T10:20:57.544Z,4.77
2018-06-27T10:23:28.226Z,14.30
2018-06-27T10:26:00.325Z,5.47
2018-06-27T10:28:35.083Z,5.50
2018-06-27T10:31:05.595Z,4.70
2018-06-27T10:33:36.188Z,4.47
2018-06-27T10:36:21.457Z,6.23
2018-06-27T10:38:52.480Z,6.60
2018-06-27T10:41:23.244Z,4.17
2018-06-27T10:43:53.740Z,5.10
2018-06-27T10:46:24.375Z,4.37
2018-06-27T10:48:55.263Z,8.60
2018-06-27T10:51:26.079Z,7.03
2018-06-27T10:53:56.803Z,4.97
2018-06-27T10:56:27.410Z,6.60
2018-06-27T10:58:58.978Z,3.83
2018-06-27T11:01:29.541Z,2.60
2018-06-27T11:04:00.271Z,4.90
2018-06-27T11:06:30.782Z,7.53
2018-06-27T11:09:02.471Z,3.90
2018-06-27T11:11:33.971Z,4.20
2018-06-27T11:14:05.199Z,3.67
2018-06-27T11:16:36.194Z,3.43
2018-06-27T11:19:08.149Z,3.20
2018-06-27T11:21:38.624Z,4.00
2018-06-27T11:24:09.794Z,4.57
2018-06-27T11:26:40.632Z,2.77
2018-06-27T11:29:15.276Z,6.00
2018-06-27T11:31:45.709Z,4.20
2018-06-27T11:34:16.240Z,3.57
2018-06-27T11:36:46.813Z,2.87
2018-06-27T11:39:17.418Z,2.40
2018-06-27T11:41:47.983Z,5.33
2018-06-27T11:44:20.034Z,5.20
2018-06-27T11:46:51.018Z,3.77
2018-06-27T11:49:21.582Z,2.93
2018-06-27T11:51:52.822Z,3.93
2018-06-27T11:54:23.425Z,2.27
2018-06-27T11:56:54.321Z,3.93
2018-06-27T11:59:25.190Z,2.60
2018-06-27T12:01:55.881Z,2.87
2018-06-27T12:04:26.483Z,3.33
2018-06-27T12:06:57.514Z,14.40
2018-06-27T12:09:28.938Z,5.33
2018-06-27T12:11:59.537Z,2.80
2018-06-27T12:14:30.101Z,4.13
2018-06-27T12:17:00.922Z,2.27
2018-06-27T12:19:32.913Z,2.73
2018-06-27T12:22:04.876Z,2.17
2018-06-27T12:24:35.509Z,2.60
2018-06-27T12:27:06.228Z,1.90
2018-06-27T12:29:37.396Z,2.07
2018-06-27T12:32:07.979Z,2.47
2018-06-27T12:34:38.749Z,1.90
2018-06-27T12:37:09.478Z,2.00
2018-06-27T12:39:40.419Z,2.40
2018-06-27T12:42:11.078Z,2.13
2018-06-27T12:44:41.748Z,3.17
2018-06-27T12:47:12.298Z,1.60
2018-06-27T12:49:45.286Z,1.70
2018-06-27T12:52:15.864Z,2.57
2018-06-27T12:54:46.578Z,2.03
2018-06-27T12:57:18.460Z,3.10
2018-06-27T12:59:49.362Z,2.17
2018-06-27T13:02:19.958Z,1.67
2018-06-27T13:04:50.632Z,1.90
2018-06-27T13:07:21.166Z,2.83
2018-06-27T13:09:51.719Z,1.97
2018-06-27T13:12:22.848Z,1.97
2018-06-27T13:14:53.836Z,3.73
2018-06-27T13:17:26.024Z,2.10
2018-06-27T13:19:58.015Z,2.90
2018-06-27T13:22:29.526Z,1.80
2018-06-27T13:25:00.626Z,2.57
2018-06-27T13:27:31.673Z,1.27
2018-06-27T13:30:03.754Z,1.33
2018-06-27T13:32:34.491Z,1.13
2018-06-27T13:35:06.499Z,12.57
2018-06-27T13:37:37.900Z,3.10
2018-06-27T13:40:08.495Z,1.80
2018-06-27T13:42:39.202Z,1.40
2018-06-27T13:45:10.338Z,1.60
2018-06-27T13:47:40.931Z,1.30
2018-06-27T13:50:11.513Z,1.70
2018-06-27T13:52:43.684Z,2.63
2018-06-27T13:55:14.251Z,2.20
2018-06-27T13:57:44.794Z,2.30
2018-06-27T14:00:15.417Z,1.80
2018-06-27T14:02:53.250Z,1.30
2018-06-27T14:05:23.743Z,1.33
2018-06-27T14:07:54.202Z,1.40
2018-06-27T14:12:47.627Z,2.23
2018-06-27T14:15:17.705Z,1.60
2018-06-27T14:17:52.084Z,1.50
2018-06-27T14:20:22.142Z,1.30
2018-06-27T14:22:52.154Z,2.33
2018-06-27T14:25:22.749Z,1.50
2018-06-27T14:27:53.025Z,1.40
2018-06-27T14:30:23.022Z,1.97
2018-06-27T14:32:54.511Z,1.63
2018-06-27T14:35:24.621Z,2.60
2018-06-27T14:37:54.765Z,2.17
2018-06-27T14:40:26.810Z,1.60
2018-06-27T14:42:56.879Z,1.97
2018-06-27T14:45:26.862Z,1.20
2018-06-27T14:47:57.276Z,2.43
2018-06-27T14:50:27.492Z,1.47
2018-06-27T14:52:57.575Z,2.83
2018-06-27T14:55:34.986Z,1.40
2018-06-27T14:58:05.316Z,2.63
2018-06-27T15:00:35.460Z,1.70
2018-06-27T15:03:05.641Z,1.93
2018-06-27T15:05:36.592Z,1.77
2018-06-27T15:08:06.984Z,3.70
2018-06-27T15:10:37.153Z,1.73
2018-06-27T15:13:08.579Z,3.27
2018-06-27T15:15:39.504Z,2.00
2018-06-27T15:18:09.550Z,2.33
2018-06-27T15:20:39.644Z,1.50
2018-06-27T15:23:12.814Z,2.97
2018-06-27T15:25:43.313Z,2.80
2018-06-27T15:28:14.142Z,1.77
2018-06-27T15:30:45.070Z,1.70
2018-06-27T15:33:15.084Z,1.73
2018-06-27T15:35:45.237Z,1.63
2018-06-27T15:38:16.170Z,2.50
2018-06-27T15:40:46.439Z,3.13
2018-06-27T15:43:16.238Z,1.53
2018-06-27T15:45:46.557Z,4.43
2018-06-27T15:48:16.523Z,2.83
2018-06-27T15:50:46.694Z,2.13
2018-06-27T15:53:17.193Z,2.70
2018-06-27T15:55:47.255Z,3.00
2018-06-27T15:58:17.407Z,5.47
2018-06-27T16:00:58.190Z,1.87
2018-06-27T16:03:28.368Z,1.70
2018-06-27T16:05:58.370Z,2.20
2018-06-27T16:08:30.042Z,2.13
2018-06-27T16:11:00.676Z,2.70
2018-06-27T16:13:30.636Z,3.37
2018-06-27T16:16:02.576Z,1.67
2018-06-27T16:18:32.736Z,1.50
2018-06-27T16:21:03.395Z,1.90
2018-06-27T16:23:34.774Z,3.37
2018-06-27T16:26:04.919Z,1.83
2018-06-27T16:28:35.024Z,1.77
2018-06-27T16:31:05.349Z,2.80
2018-06-27T16:33:35.766Z,4.00
2018-06-27T16:36:05.978Z,2.13
2018-06-27T16:38:37.522Z,3.70
2018-06-27T16:41:08.003Z,2.07
2018-06-27T16:43:41.804Z,2.07
2018-06-27T16:46:11.870Z,1.47
2018-06-27T16:48:43.097Z,2.47
2018-06-27T16:51:14.623Z,3.40
2018-06-27T16:53:45.214Z,2.83
2018-06-27T16:56:15.947Z,2.73
2018-06-27T16:58:46.397Z,1.93
2018-06-27T17:01:16.720Z,3.00
2018-06-27T17:03:46.866Z,1.30
2018-06-27T17:06:17.367Z,1.90
2018-06-27T17:08:47.556Z,3.80
2018-06-27T17:11:17.665Z,3.50
2018-06-27T17:13:48.383Z,1.47
2018-06-27T17:16:20.854Z,2.43
2018-06-27T17:18:50.934Z,2.07
2018-06-27T17:21:21.271Z,1.93
2018-06-27T17:23:51.636Z,2.90
2018-06-27T17:26:21.738Z,1.47
2018-06-27T17:28:52.174Z,2.17
2018-06-27T17:31:22.452Z,1.67
2018-06-27T17:33:52.759Z,2.43
2018-06-27T17:36:24.366Z,1.70
2018-06-27T17:38:55.373Z,1.70
2018-06-27T17:41:26.383Z,1.50
2018-06-27T17:43:56.924Z,1.50
2018-06-27T17:46:27.037Z,1.53
2018-06-27T17:48:57.252Z,2.23
2018-06-27T17:51:28.351Z,1.50
2018-06-27T17:53:59.075Z,1.60
2018-06-27T17:56:29.318Z,1.70
2018-06-27T17:58:59.912Z,3.80
2018-06-27T18:01:30.717Z,1.73
2018-06-27T18:04:00.729Z,2.30
2018-06-27T18:06:32.534Z,4.10
2018-06-27T18:09:02.703Z,2.83
2018-06-27T18:11:33.227Z,2.10
2018-06-27T18:14:04.792Z,1.70
2018-06-27T18:16:35.558Z,2.27
2018-06-27T18:19:06.195Z,3.13
2018-06-27T18:21:36.568Z,2.70
2018-06-27T18:24:06.796Z,2.53
2018-06-27T18:26:36.822Z,3.80
2018-06-27T18:29:07.467Z,2.47
2018-06-27T18:31:37.572Z,2.13
2018-06-27T18:34:08.218Z,4.27
2018-06-27T18:36:40.530Z,2.67
2018-06-27T18:39:11.831Z,1.90
2018-06-27T18:41:43.798Z,2.30
2018-06-27T18:44:22.206Z,3.27
2018-06-27T18:46:53.913Z,3.07
2018-06-27T18:49:33.239Z,1.77
2018-06-27T18:52:06.692Z,5.63
2018-06-27T18:54:42.163Z,2.30
2018-06-27T18:57:12.554Z,3.53
2018-06-27T18:59:42.681Z,4.10
2018-06-27T19:02:12.890Z,2.53
2018-06-27T19:04:43.020Z,2.70
2018-06-27T19:07:13.200Z,4.03
2018-06-27T19:09:43.999Z,2.30
2018-06-27T19:12:14.037Z,2.23
2018-06-27T19:14:45.551Z,3.20
2018-06-27T19:17:16.900Z,2.70
2018-06-27T19:19:47.151Z,3.37
2018-06-27T19:22:17.284Z,2.43
2018-06-27T19:24:47.758Z,2.53
2018-06-27T19:27:17.933Z,4.27
2018-06-27T19:29:48.099Z,2.53
2018-06-27T19:32:21.837Z,2.40
2018-06-27T19:34:51.896Z,3.13
2018-06-27T19:37:22.145Z,2.30
2018-06-27T19:39:52.773Z,3.47
2018-06-27T19:42:22.920Z,3.27
2018-06-27T19:44:53.694Z,3.30
2018-06-27T19:47:23.912Z,2.20
2018-06-27T19:49:55.164Z,2.20
2018-06-27T19:52:26.013Z,2.80
2018-06-27T19:54:56.236Z,2.40
2018-06-27T19:57:26.387Z,4.20
2018-06-27T19:59:57.961Z,3.43
2018-06-27T20:02:33.602Z,2.90
2018-06-27T20:05:04.217Z,3.00
2018-06-27T20:07:34.821Z,2.10
2018-06-27T20:10:05.516Z,2.57
2018-06-27T20:12:40.048Z,3.03
2018-06-27T20:15:11.325Z,1.93
2018-06-27T20:17:43.431Z,2.10
2018-06-27T20:20:26.824Z,2.17
2018-06-27T20:23:07.047Z,2.10
2018-06-27T20:25:41.654Z,4.67
2018-06-27T20:28:16.894Z,3.10
2018-06-27T20:30:54.682Z,3.30
2018-06-27T20:33:31.001Z,3.13
2018-06-27T20:36:08.993Z,3.43
2018-06-27T20:38:50.161Z,2.10
2018-06-27T20:41:36.125Z,2.40
2018-06-27T20:44:09.794Z,2.23
2018-06-27T20:46:50.367Z,3.00
2018-06-27T20:49:27.078Z,1.80
2018-06-27T20:52:05.790Z,4.23
2018-06-27T20:54:38.540Z,2.20
2018-06-27T20:57:14.088Z,1.90
2018-06-27T21:00:05.848Z,3.50
2018-06-27T21:02:48.769Z,2.30
2018-06-27T21:05:27.638Z,1.80
2018-06-27T21:08:07.539Z,2.63
2018-06-27T21:10:48.007Z,1.93
2018-06-27T21:13:28.039Z,1.70
2018-06-27T21:16:08.939Z,2.13
2018-06-27T21:18:52.944Z,1.70
2018-06-27T21:21:38.090Z,3.50
2018-06-27T21:24:12.495Z,3.80
2018-06-27T21:26:43.129Z,3.80
2018-06-27T21:29:13.770Z,2.60
2018-06-27T21:31:44.304Z,1.70
2018-06-27T21:34:15.030Z,1.77
2018-06-27T21:36:45.693Z,1.80
2018-06-27T21:39:17.340Z,2.30
2018-06-27T21:41:48.090Z,1.50
2018-06-27T21:44:18.044Z,2.17
2018-06-27T21:46:49.269Z,2.90
2018-06-27T21:49:19.464Z,1.70
2018-06-27T21:51:49.929Z,1.80
2018-06-27T21:54:26.651Z,2.40
2018-06-27T21:57:01.857Z,2.87
2018-06-27T21:59:35.642Z,2.33
2018-06-27T22:02:11.693Z,2.53
2018-06-27T22:04:43.895Z,3.70
2018-06-27T22:07:15.715Z,1.73
2018-06-27T22:09:46.367Z,1.83
2018-06-27T22:12:19.655Z,2.17
2018-06-27T22:14:49.751Z,2.13
2018-06-27T22:17:19.798Z,1.93
2018-06-27T22:19:50.800Z,2.13
2018-06-27T22:23:41.824Z,2.10
2018-06-27T22:26:12.035Z,2.93
2018-06-27T22:28:53.834Z,2.50
2018-06-27T22:31:32.759Z,2.57
2018-06-27T22:34:03.206Z,2.70
2018-06-27T22:36:35.819Z,2.40
2018-06-27T22:39:13.235Z,2.43
2018-06-27T22:41:49.533Z,1.80
2018-06-27T22:44:19.667Z,4.07
2018-06-27T22:46:50.187Z,2.50
2018-06-27T22:49:20.611Z,4.53
2018-06-27T22:51:50.905Z,2.50
2018-06-27T22:54:21.022Z,4.47
2018-06-27T22:56:53.323Z,3.43
2018-06-27T22:59:23.404Z,2.30
2018-06-27T23:01:53.486Z,2.80
2018-06-27T23:04:25.941Z,3.70
2018-06-27T23:06:56.212Z,2.13
2018-06-27T23:09:35.146Z,2.00
2018-06-27T23:12:12.074Z,2.30
2018-06-27T23:14:42.500Z,2.30
2018-06-27T23:17:12.633Z,3.13
2018-06-27T23:19:43.247Z,2.30
2018-06-27T23:22:49.797Z,2.97
2018-06-27T23:25:20.306Z,2.33
2018-06-27T23:28:57.294Z,4.77
2018-06-27T23:31:39.323Z,2.73
2018-06-27T23:34:09.588Z,3.00
2018-06-27T23:36:39.947Z,2.33
2018-06-27T23:39:13.026Z,4.63
2018-06-27T23:41:44.782Z,2.80
2018-06-27T23:44:14.897Z,2.40
2018-06-27T23:46:45.120Z,3.70
2018-06-27T23:49:15.254Z,3.80
2018-06-27T23:51:47.608Z,2.57
2018-06-27T23:54:17.854Z,7.60
2018-06-27T23:56:48.179Z,3.43
2018-06-27T23:59:19.104Z,2.83
